sensor_id;sensor_type;location;lat;lon;timestamp;P1;durP1;ratioP1;P2;durP2;ratioP2
57191;SDS011;43052;52.588;13.396;2023-04-25T00:02:17;7.90;;;5.25;;
57191;SDS011;43052;52.588;13.396;2023-04-25T00:04:42;6.75;;;4.45;;
57191;SDS011;43052;52.588;13.396;2023-04-25T00:07:08;7.00;;;4.32;;
57191;SDS011;43052;52.588;13.396;2023-04-25T00:09:34;7.85;;;4.60;;
57191;SDS011;43052;52.588;13.396;2023-04-25T00:11:59;7.55;;;4.78;;
57191;SDS011;43052;52.588;13.396;2023-04-25T00:14:34;8.02;;;5.07;;
57191;SDS011;43052;52.588;13.396;2023-04-25T00:17:01;6.15;;;4.70;;
57191;SDS011;43052;52.588;13.396;2023-04-25T00:19:27;6.18;;;4.03;;
57191;SDS011;43052;52.588;13.396;2023-04-25T00:21:53;6.68;;;4.13;;
57191;SDS011;43052;52.588;13.396;2023-04-25T00:24:19;7.55;;;4.30;;
57191;SDS011;43052;52.588;13.396;2023-04-25T00:26:44;8.07;;;4.13;;
57191;SDS011;43052;52.588;13.396;2023-04-25T00:29:10;7.32;;;4.28;;
57191;SDS011;43052;52.588;13.396;2023-04-25T00:31:35;8.73;;;4.32;;
57191;SDS011;43052;52.588;13.396;2023-04-25T00:34:00;6.18;;;3.83;;
57191;SDS011;43052;52.588;13.396;2023-04-25T00:36:25;7.82;;;4.22;;
57191;SDS011;43052;52.588;13.396;2023-04-25T00:38:51;9.48;;;4.28;;
57191;SDS011;43052;52.588;13.396;2023-04-25T00:41:18;8.07;;;3.53;;
57191;SDS011;43052;52.588;13.396;2023-04-25T00:43:43;7.10;;;3.42;;
57191;SDS011;43052;52.588;13.396;2023-04-25T00:46:10;5.72;;;3.65;;
57191;SDS011;43052;52.588;13.396;2023-04-25T00:48:35;6.82;;;3.38;;
57191;SDS011;43052;52.588;13.396;2023-04-25T00:51:01;7.95;;;3.58;;
57191;SDS011;43052;52.588;13.396;2023-04-25T00:53:27;6.10;;;3.60;;
57191;SDS011;43052;52.588;13.396;2023-04-25T00:55:53;8.55;;;3.65;;
57191;SDS011;43052;52.588;13.396;2023-04-25T00:58:20;6.93;;;3.80;;
57191;SDS011;43052;52.588;13.396;2023-04-25T01:00:47;6.90;;;3.50;;
57191;SDS011;43052;52.588;13.396;2023-04-25T01:03:14;7.93;;;3.80;;
57191;SDS011;43052;52.588;13.396;2023-04-25T01:05:42;7.30;;;3.63;;
57191;SDS011;43052;52.588;13.396;2023-04-25T01:08:08;6.28;;;3.97;;
57191;SDS011;43052;52.588;13.396;2023-04-25T01:10:33;7.55;;;3.85;;
57191;SDS011;43052;52.588;13.396;2023-04-25T01:12:59;8.30;;;4.07;;
57191;SDS011;43052;52.588;13.396;2023-04-25T01:15:24;8.32;;;3.97;;
57191;SDS011;43052;52.588;13.396;2023-04-25T01:17:49;8.25;;;3.88;;
57191;SDS011;43052;52.588;13.396;2023-04-25T01:20:14;6.80;;;3.80;;
57191;SDS011;43052;52.588;13.396;2023-04-25T01:22:40;9.65;;;4.45;;
57191;SDS011;43052;52.588;13.396;2023-04-25T01:25:06;10.93;;;4.15;;
57191;SDS011;43052;52.588;13.396;2023-04-25T01:27:32;6.30;;;3.80;;
57191;SDS011;43052;52.588;13.396;2023-04-25T01:29:57;6.85;;;3.65;;
57191;SDS011;43052;52.588;13.396;2023-04-25T01:32:23;6.90;;;3.25;;
57191;SDS011;43052;52.588;13.396;2023-04-25T01:34:49;7.57;;;3.80;;
57191;SDS011;43052;52.588;13.396;2023-04-25T01:37:14;8.75;;;3.75;;
57191;SDS011;43052;52.588;13.396;2023-04-25T01:39:41;7.93;;;3.47;;
57191;SDS011;43052;52.588;13.396;2023-04-25T01:42:06;8.90;;;3.40;;
57191;SDS011;43052;52.588;13.396;2023-04-25T01:44:32;7.32;;;3.53;;
57191;SDS011;43052;52.588;13.396;2023-04-25T01:46:57;8.65;;;3.75;;
57191;SDS011;43052;52.588;13.396;2023-04-25T01:49:22;9.00;;;4.30;;
57191;SDS011;43052;52.588;13.396;2023-04-25T01:51:48;8.10;;;3.78;;
57191;SDS011;43052;52.588;13.396;2023-04-25T01:54:14;7.05;;;3.65;;
57191;SDS011;43052;52.588;13.396;2023-04-25T01:56:39;7.43;;;3.92;;
57191;SDS011;43052;52.588;13.396;2023-04-25T01:59:05;9.25;;;4.35;;
57191;SDS011;43052;52.588;13.396;2023-04-25T02:01:30;10.23;;;4.13;;
57191;SDS011;43052;52.588;13.396;2023-04-25T02:03:56;11.60;;;4.47;;
57191;SDS011;43052;52.588;13.396;2023-04-25T02:06:22;8.35;;;4.20;;
57191;SDS011;43052;52.588;13.396;2023-04-25T02:08:47;8.18;;;4.68;;
57191;SDS011;43052;52.588;13.396;2023-04-25T02:11:13;9.98;;;4.25;;
57191;SDS011;43052;52.588;13.396;2023-04-25T02:13:38;8.48;;;4.40;;
57191;SDS011;43052;52.588;13.396;2023-04-25T02:16:04;9.20;;;5.05;;
57191;SDS011;43052;52.588;13.396;2023-04-25T02:18:29;9.10;;;4.78;;
57191;SDS011;43052;52.588;13.396;2023-04-25T02:20:54;9.93;;;4.30;;
57191;SDS011;43052;52.588;13.396;2023-04-25T02:23:20;9.50;;;4.50;;
57191;SDS011;43052;52.588;13.396;2023-04-25T02:25:45;10.38;;;5.65;;
57191;SDS011;43052;52.588;13.396;2023-04-25T02:28:10;8.18;;;4.68;;
57191;SDS011;43052;52.588;13.396;2023-04-25T02:30:36;10.88;;;4.70;;
57191;SDS011;43052;52.588;13.396;2023-04-25T02:33:01;9.48;;;4.70;;
57191;SDS011;43052;52.588;13.396;2023-04-25T02:35:27;7.25;;;4.45;;
57191;SDS011;43052;52.588;13.396;2023-04-25T02:37:52;7.68;;;4.68;;
57191;SDS011;43052;52.588;13.396;2023-04-25T02:40:17;8.20;;;4.68;;
57191;SDS011;43052;52.588;13.396;2023-04-25T02:42:43;6.63;;;4.53;;
57191;SDS011;43052;52.588;13.396;2023-04-25T02:45:10;10.05;;;5.45;;
57191;SDS011;43052;52.588;13.396;2023-04-25T02:47:35;9.70;;;4.55;;
57191;SDS011;43052;52.588;13.396;2023-04-25T02:50:01;7.38;;;4.45;;
57191;SDS011;43052;52.588;13.396;2023-04-25T02:52:26;9.77;;;4.97;;
57191;SDS011;43052;52.588;13.396;2023-04-25T02:54:51;10.30;;;5.40;;
57191;SDS011;43052;52.588;13.396;2023-04-25T02:57:16;11.02;;;6.00;;
57191;SDS011;43052;52.588;13.396;2023-04-25T02:59:42;11.57;;;5.72;;
57191;SDS011;43052;52.588;13.396;2023-04-25T03:02:07;9.82;;;5.43;;
57191;SDS011;43052;52.588;13.396;2023-04-25T03:04:32;9.60;;;4.93;;
57191;SDS011;43052;52.588;13.396;2023-04-25T03:06:58;9.48;;;5.07;;
57191;SDS011;43052;52.588;13.396;2023-04-25T03:09:23;7.43;;;4.97;;
57191;SDS011;43052;52.588;13.396;2023-04-25T03:11:49;10.32;;;5.60;;
57191;SDS011;43052;52.588;13.396;2023-04-25T03:14:14;9.48;;;5.00;;
57191;SDS011;43052;52.588;13.396;2023-04-25T03:16:40;9.18;;;5.13;;
57191;SDS011;43052;52.588;13.396;2023-04-25T03:19:05;8.27;;;5.35;;
57191;SDS011;43052;52.588;13.396;2023-04-25T03:21:31;11.15;;;5.50;;
57191;SDS011;43052;52.588;13.396;2023-04-25T03:23:57;7.45;;;5.05;;
57191;SDS011;43052;52.588;13.396;2023-04-25T03:26:23;9.63;;;4.95;;
57191;SDS011;43052;52.588;13.396;2023-04-25T03:28:48;9.13;;;5.20;;
57191;SDS011;43052;52.588;13.396;2023-04-25T03:31:14;11.98;;;6.40;;
57191;SDS011;43052;52.588;13.396;2023-04-25T03:33:39;9.73;;;5.28;;
57191;SDS011;43052;52.588;13.396;2023-04-25T03:36:05;9.60;;;4.95;;
57191;SDS011;43052;52.588;13.396;2023-04-25T03:38:30;8.57;;;5.00;;
57191;SDS011;43052;52.588;13.396;2023-04-25T03:40:55;10.25;;;5.47;;
57191;SDS011;43052;52.588;13.396;2023-04-25T03:43:21;10.00;;;5.45;;
57191;SDS011;43052;52.588;13.396;2023-04-25T03:45:46;9.60;;;5.30;;
57191;SDS011;43052;52.588;13.396;2023-04-25T03:48:11;9.40;;;4.93;;
57191;SDS011;43052;52.588;13.396;2023-04-25T03:50:37;8.40;;;5.05;;
57191;SDS011;43052;52.588;13.396;2023-04-25T03:53:02;11.52;;;5.10;;
57191;SDS011;43052;52.588;13.396;2023-04-25T03:55:27;9.95;;;5.63;;
57191;SDS011;43052;52.588;13.396;2023-04-25T03:57:52;10.52;;;5.57;;
57191;SDS011;43052;52.588;13.396;2023-04-25T04:00:18;10.02;;;5.90;;
57191;SDS011;43052;52.588;13.396;2023-04-25T04:02:43;9.90;;;4.93;;
57191;SDS011;43052;52.588;13.396;2023-04-25T04:05:08;12.70;;;5.78;;
57191;SDS011;43052;52.588;13.396;2023-04-25T04:07:34;9.02;;;5.28;;
57191;SDS011;43052;52.588;13.396;2023-04-25T04:10:04;10.15;;;5.65;;
57191;SDS011;43052;52.588;13.396;2023-04-25T04:12:31;9.23;;;5.05;;
57191;SDS011;43052;52.588;13.396;2023-04-25T04:14:56;9.52;;;5.50;;
57191;SDS011;43052;52.588;13.396;2023-04-25T04:17:21;11.57;;;5.70;;
57191;SDS011;43052;52.588;13.396;2023-04-25T04:19:46;7.80;;;4.55;;
57191;SDS011;43052;52.588;13.396;2023-04-25T04:22:12;11.00;;;5.32;;
57191;SDS011;43052;52.588;13.396;2023-04-25T04:24:37;9.43;;;4.85;;
57191;SDS011;43052;52.588;13.396;2023-04-25T04:27:02;9.60;;;5.03;;
57191;SDS011;43052;52.588;13.396;2023-04-25T04:29:28;10.43;;;4.85;;
57191;SDS011;43052;52.588;13.396;2023-04-25T04:31:53;10.65;;;5.10;;
57191;SDS011;43052;52.588;13.396;2023-04-25T04:34:18;10.63;;;4.80;;
57191;SDS011;43052;52.588;13.396;2023-04-25T04:36:44;7.10;;;4.65;;
57191;SDS011;43052;52.588;13.396;2023-04-25T04:39:11;9.85;;;5.20;;
57191;SDS011;43052;52.588;13.396;2023-04-25T04:41:37;9.85;;;5.50;;
57191;SDS011;43052;52.588;13.396;2023-04-25T04:44:02;9.38;;;5.10;;
57191;SDS011;43052;52.588;13.396;2023-04-25T04:46:27;8.95;;;4.78;;
57191;SDS011;43052;52.588;13.396;2023-04-25T04:48:53;10.10;;;4.32;;
57191;SDS011;43052;52.588;13.396;2023-04-25T04:51:19;10.35;;;5.57;;
57191;SDS011;43052;52.588;13.396;2023-04-25T04:53:45;10.73;;;4.70;;
57191;SDS011;43052;52.588;13.396;2023-04-25T04:56:10;9.77;;;4.72;;
57191;SDS011;43052;52.588;13.396;2023-04-25T04:58:36;8.40;;;4.45;;
57191;SDS011;43052;52.588;13.396;2023-04-25T05:01:01;8.32;;;4.60;;
57191;SDS011;43052;52.588;13.396;2023-04-25T05:03:27;8.07;;;4.28;;
57191;SDS011;43052;52.588;13.396;2023-04-25T05:05:52;8.40;;;4.65;;
57191;SDS011;43052;52.588;13.396;2023-04-25T05:08:18;7.97;;;4.70;;
57191;SDS011;43052;52.588;13.396;2023-04-25T05:10:43;8.68;;;4.78;;
57191;SDS011;43052;52.588;13.396;2023-04-25T05:13:08;10.48;;;4.55;;
57191;SDS011;43052;52.588;13.396;2023-04-25T05:15:33;7.13;;;4.40;;
57191;SDS011;43052;52.588;13.396;2023-04-25T05:17:59;9.10;;;5.10;;
57191;SDS011;43052;52.588;13.396;2023-04-25T05:20:24;11.95;;;4.65;;
57191;SDS011;43052;52.588;13.396;2023-04-25T05:22:49;12.23;;;5.07;;
57191;SDS011;43052;52.588;13.396;2023-04-25T05:25:14;8.73;;;4.82;;
57191;SDS011;43052;52.588;13.396;2023-04-25T05:27:40;9.38;;;5.05;;
57191;SDS011;43052;52.588;13.396;2023-04-25T05:30:05;11.10;;;4.82;;
57191;SDS011;43052;52.588;13.396;2023-04-25T05:32:31;9.02;;;4.75;;
57191;SDS011;43052;52.588;13.396;2023-04-25T05:34:56;7.28;;;4.47;;
57191;SDS011;43052;52.588;13.396;2023-04-25T05:37:21;9.43;;;4.78;;
57191;SDS011;43052;52.588;13.396;2023-04-25T05:39:47;9.18;;;4.70;;
57191;SDS011;43052;52.588;13.396;2023-04-25T05:42:12;7.35;;;4.70;;
57191;SDS011;43052;52.588;13.396;2023-04-25T05:44:38;14.60;;;5.53;;
57191;SDS011;43052;52.588;13.396;2023-04-25T05:47:03;10.48;;;5.15;;
57191;SDS011;43052;52.588;13.396;2023-04-25T05:49:29;8.35;;;5.03;;
57191;SDS011;43052;52.588;13.396;2023-04-25T05:51:55;9.57;;;6.03;;
57191;SDS011;43052;52.588;13.396;2023-04-25T05:54:20;9.75;;;4.97;;
57191;SDS011;43052;52.588;13.396;2023-04-25T05:56:45;8.15;;;5.40;;
57191;SDS011;43052;52.588;13.396;2023-04-25T05:59:10;10.23;;;5.50;;
57191;SDS011;43052;52.588;13.396;2023-04-25T06:01:36;8.80;;;5.75;;
57191;SDS011;43052;52.588;13.396;2023-04-25T06:04:01;10.52;;;5.40;;
57191;SDS011;43052;52.588;13.396;2023-04-25T06:06:26;9.73;;;5.57;;
57191;SDS011;43052;52.588;13.396;2023-04-25T06:08:52;10.07;;;5.32;;
57191;SDS011;43052;52.588;13.396;2023-04-25T06:11:17;9.52;;;5.35;;
57191;SDS011;43052;52.588;13.396;2023-04-25T06:13:43;12.18;;;7.00;;
57191;SDS011;43052;52.588;13.396;2023-04-25T06:19:16;10.23;;;5.28;;
57191;SDS011;43052;52.588;13.396;2023-04-25T06:21:42;10.07;;;6.10;;
57191;SDS011;43052;52.588;13.396;2023-04-25T06:24:08;8.57;;;5.35;;
57191;SDS011;43052;52.588;13.396;2023-04-25T06:26:34;10.52;;;5.65;;
57191;SDS011;43052;52.588;13.396;2023-04-25T06:28:59;12.70;;;6.22;;
57191;SDS011;43052;52.588;13.396;2023-04-25T06:31:24;9.60;;;5.60;;
57191;SDS011;43052;52.588;13.396;2023-04-25T06:33:50;10.70;;;6.10;;
57191;SDS011;43052;52.588;13.396;2023-04-25T06:36:15;11.82;;;6.30;;
57191;SDS011;43052;52.588;13.396;2023-04-25T06:38:40;11.93;;;5.88;;
57191;SDS011;43052;52.588;13.396;2023-04-25T06:41:05;11.10;;;6.03;;
57191;SDS011;43052;52.588;13.396;2023-04-25T06:43:31;8.52;;;5.72;;
57191;SDS011;43052;52.588;13.396;2023-04-25T06:45:58;11.45;;;5.80;;
57191;SDS011;43052;52.588;13.396;2023-04-25T06:48:24;9.32;;;5.68;;
57191;SDS011;43052;52.588;13.396;2023-04-25T06:50:50;8.88;;;5.85;;
57191;SDS011;43052;52.588;13.396;2023-04-25T06:53:15;11.23;;;5.85;;
57191;SDS011;43052;52.588;13.396;2023-04-25T06:55:40;11.70;;;6.18;;
57191;SDS011;43052;52.588;13.396;2023-04-25T06:58:06;9.20;;;5.07;;
57191;SDS011;43052;52.588;13.396;2023-04-25T07:00:32;10.93;;;5.10;;
57191;SDS011;43052;52.588;13.396;2023-04-25T07:02:59;9.05;;;5.57;;
57191;SDS011;43052;52.588;13.396;2023-04-25T07:05:24;10.00;;;5.40;;
57191;SDS011;43052;52.588;13.396;2023-04-25T07:07:50;7.68;;;5.32;;
57191;SDS011;43052;52.588;13.396;2023-04-25T07:10:15;9.48;;;5.28;;
57191;SDS011;43052;52.588;13.396;2023-04-25T07:12:40;8.18;;;4.97;;
57191;SDS011;43052;52.588;13.396;2023-04-25T07:15:06;10.80;;;5.68;;
57191;SDS011;43052;52.588;13.396;2023-04-25T07:17:33;11.82;;;5.03;;
57191;SDS011;43052;52.588;13.396;2023-04-25T07:19:58;12.57;;;5.85;;
57191;SDS011;43052;52.588;13.396;2023-04-25T07:22:24;9.10;;;5.10;;
57191;SDS011;43052;52.588;13.396;2023-04-25T07:24:51;7.88;;;5.30;;
57191;SDS011;43052;52.588;13.396;2023-04-25T07:27:18;8.88;;;4.95;;
57191;SDS011;43052;52.588;13.396;2023-04-25T07:29:43;9.63;;;5.70;;
57191;SDS011;43052;52.588;13.396;2023-04-25T07:32:08;9.95;;;5.30;;
57191;SDS011;43052;52.588;13.396;2023-04-25T07:34:35;12.27;;;4.68;;
57191;SDS011;43052;52.588;13.396;2023-04-25T07:37:03;8.38;;;5.38;;
57191;SDS011;43052;52.588;13.396;2023-04-25T07:39:28;11.70;;;4.93;;
57191;SDS011;43052;52.588;13.396;2023-04-25T07:41:54;10.50;;;5.00;;
57191;SDS011;43052;52.588;13.396;2023-04-25T07:44:19;17.25;;;5.30;;
57191;SDS011;43052;52.588;13.396;2023-04-25T07:46:44;11.63;;;4.68;;
57191;SDS011;43052;52.588;13.396;2023-04-25T07:49:10;12.20;;;4.35;;
57191;SDS011;43052;52.588;13.396;2023-04-25T07:51:35;11.80;;;5.10;;
57191;SDS011;43052;52.588;13.396;2023-04-25T07:54:00;9.75;;;4.20;;
57191;SDS011;43052;52.588;13.396;2023-04-25T07:56:25;11.95;;;5.28;;
57191;SDS011;43052;52.588;13.396;2023-04-25T07:58:51;11.85;;;4.32;;
57191;SDS011;43052;52.588;13.396;2023-04-25T08:01:16;13.80;;;4.72;;
57191;SDS011;43052;52.588;13.396;2023-04-25T08:03:41;12.73;;;4.80;;
57191;SDS011;43052;52.588;13.396;2023-04-25T08:06:07;12.60;;;4.50;;
57191;SDS011;43052;52.588;13.396;2023-04-25T08:08:32;12.98;;;4.15;;
57191;SDS011;43052;52.588;13.396;2023-04-25T08:10:57;14.20;;;3.97;;
57191;SDS011;43052;52.588;13.396;2023-04-25T08:13:22;14.32;;;4.65;;
57191;SDS011;43052;52.588;13.396;2023-04-25T08:15:48;13.55;;;5.13;;
57191;SDS011;43052;52.588;13.396;2023-04-25T08:18:13;14.05;;;4.55;;
57191;SDS011;43052;52.588;13.396;2023-04-25T08:20:38;12.85;;;4.13;;
57191;SDS011;43052;52.588;13.396;2023-04-25T08:23:03;14.27;;;4.65;;
57191;SDS011;43052;52.588;13.396;2023-04-25T08:25:29;12.85;;;4.15;;
57191;SDS011;43052;52.588;13.396;2023-04-25T08:27:54;13.80;;;3.83;;
57191;SDS011;43052;52.588;13.396;2023-04-25T08:30:20;13.40;;;4.20;;
57191;SDS011;43052;52.588;13.396;2023-04-25T08:32:46;15.20;;;3.90;;
57191;SDS011;43052;52.588;13.396;2023-04-25T08:35:11;14.30;;;5.20;;
57191;SDS011;43052;52.588;13.396;2023-04-25T08:37:36;11.15;;;4.03;;
57191;SDS011;43052;52.588;13.396;2023-04-25T08:40:03;11.65;;;4.15;;
57191;SDS011;43052;52.588;13.396;2023-04-25T08:42:31;12.35;;;3.97;;
57191;SDS011;43052;52.588;13.396;2023-04-25T08:45:00;12.57;;;3.50;;
57191;SDS011;43052;52.588;13.396;2023-04-25T08:47:26;9.50;;;3.83;;
57191;SDS011;43052;52.588;13.396;2023-04-25T08:49:53;10.55;;;3.70;;
57191;SDS011;43052;52.588;13.396;2023-04-25T08:52:21;8.15;;;3.17;;
57191;SDS011;43052;52.588;13.396;2023-04-25T08:54:48;9.75;;;3.67;;
57191;SDS011;43052;52.588;13.396;2023-04-25T08:57:14;8.82;;;3.38;;
57191;SDS011;43052;52.588;13.396;2023-04-25T08:59:40;8.25;;;2.75;;
57191;SDS011;43052;52.588;13.396;2023-04-25T09:02:10;7.45;;;3.10;;
57191;SDS011;43052;52.588;13.396;2023-04-25T09:04:42;7.43;;;3.65;;
57191;SDS011;43052;52.588;13.396;2023-04-25T09:07:08;9.60;;;3.85;;
57191;SDS011;43052;52.588;13.396;2023-04-25T09:09:33;8.25;;;3.20;;
57191;SDS011;43052;52.588;13.396;2023-04-25T09:11:59;7.85;;;3.15;;
57191;SDS011;43052;52.588;13.396;2023-04-25T09:14:26;7.75;;;2.80;;
57191;SDS011;43052;52.588;13.396;2023-04-25T09:19:31;9.38;;;3.33;;
57191;SDS011;43052;52.588;13.396;2023-04-25T09:21:58;8.73;;;2.95;;
57191;SDS011;43052;52.588;13.396;2023-04-25T09:24:32;9.13;;;3.47;;
57191;SDS011;43052;52.588;13.396;2023-04-25T09:26:59;10.82;;;3.45;;
57191;SDS011;43052;52.588;13.396;2023-04-25T09:29:30;10.68;;;3.95;;
57191;SDS011;43052;52.588;13.396;2023-04-25T09:34:47;11.02;;;3.42;;
57191;SDS011;43052;52.588;13.396;2023-04-25T09:37:18;10.77;;;3.33;;
57191;SDS011;43052;52.588;13.396;2023-04-25T09:39:45;7.13;;;3.20;;
57191;SDS011;43052;52.588;13.396;2023-04-25T09:42:13;7.35;;;2.67;;
57191;SDS011;43052;52.588;13.396;2023-04-25T09:44:43;8.10;;;2.63;;
57191;SDS011;43052;52.588;13.396;2023-04-25T09:47:10;7.00;;;2.60;;
57191;SDS011;43052;52.588;13.396;2023-04-25T09:49:38;8.50;;;2.33;;
57191;SDS011;43052;52.588;13.396;2023-04-25T09:52:05;7.95;;;2.80;;
57191;SDS011;43052;52.588;13.396;2023-04-25T09:54:31;8.52;;;2.67;;
57191;SDS011;43052;52.588;13.396;2023-04-25T09:56:56;9.07;;;3.00;;
57191;SDS011;43052;52.588;13.396;2023-04-25T09:59:22;10.25;;;3.30;;
57191;SDS011;43052;52.588;13.396;2023-04-25T10:01:49;6.85;;;2.58;;
57191;SDS011;43052;52.588;13.396;2023-04-25T10:04:22;8.45;;;3.03;;
57191;SDS011;43052;52.588;13.396;2023-04-25T10:06:50;7.40;;;2.70;;
57191;SDS011;43052;52.588;13.396;2023-04-25T10:09:19;6.47;;;2.65;;
57191;SDS011;43052;52.588;13.396;2023-04-25T10:11:46;9.15;;;2.80;;
57191;SDS011;43052;52.588;13.396;2023-04-25T10:14:15;5.90;;;2.47;;
57191;SDS011;43052;52.588;13.396;2023-04-25T10:16:41;7.95;;;2.75;;
57191;SDS011;43052;52.588;13.396;2023-04-25T10:19:07;7.10;;;2.20;;
57191;SDS011;43052;52.588;13.396;2023-04-25T10:21:34;6.63;;;2.65;;
57191;SDS011;43052;52.588;13.396;2023-04-25T10:24:05;10.05;;;2.88;;
57191;SDS011;43052;52.588;13.396;2023-04-25T10:26:31;9.70;;;2.70;;
57191;SDS011;43052;52.588;13.396;2023-04-25T10:28:57;6.63;;;2.35;;
57191;SDS011;43052;52.588;13.396;2023-04-25T10:31:27;6.65;;;2.35;;
57191;SDS011;43052;52.588;13.396;2023-04-25T10:33:55;7.22;;;2.60;;
57191;SDS011;43052;52.588;13.396;2023-04-25T10:36:21;7.70;;;2.70;;
57191;SDS011;43052;52.588;13.396;2023-04-25T10:38:48;8.23;;;2.97;;
57191;SDS011;43052;52.588;13.396;2023-04-25T10:41:17;8.10;;;3.00;;
57191;SDS011;43052;52.588;13.396;2023-04-25T10:43:44;6.38;;;2.80;;
57191;SDS011;43052;52.588;13.396;2023-04-25T10:46:27;7.75;;;2.30;;
57191;SDS011;43052;52.588;13.396;2023-04-25T10:48:56;8.02;;;3.13;;
57191;SDS011;43052;52.588;13.396;2023-04-25T10:51:27;7.70;;;2.65;;
57191;SDS011;43052;52.588;13.396;2023-04-25T10:56:37;8.32;;;2.80;;
57191;SDS011;43052;52.588;13.396;2023-04-25T10:59:05;7.35;;;2.78;;
57191;SDS011;43052;52.588;13.396;2023-04-25T11:01:42;7.95;;;2.58;;
57191;SDS011;43052;52.588;13.396;2023-04-25T11:04:21;5.43;;;2.33;;
57191;SDS011;43052;52.588;13.396;2023-04-25T11:09:30;6.15;;;2.42;;
57191;SDS011;43052;52.588;13.396;2023-04-25T11:11:58;6.78;;;2.30;;
57191;SDS011;43052;52.588;13.396;2023-04-25T11:14:25;9.25;;;2.25;;
57191;SDS011;43052;52.588;13.396;2023-04-25T11:16:54;7.07;;;2.05;;
57191;SDS011;43052;52.588;13.396;2023-04-25T11:19:20;7.70;;;2.58;;
57191;SDS011;43052;52.588;13.396;2023-04-25T11:21:46;5.80;;;2.00;;
57191;SDS011;43052;52.588;13.396;2023-04-25T11:24:11;6.93;;;2.55;;
57191;SDS011;43052;52.588;13.396;2023-04-25T11:26:36;8.27;;;2.63;;
57191;SDS011;43052;52.588;13.396;2023-04-25T11:29:02;6.32;;;2.22;;
57191;SDS011;43052;52.588;13.396;2023-04-25T11:31:28;6.07;;;2.42;;
57191;SDS011;43052;52.588;13.396;2023-04-25T11:33:54;8.52;;;2.65;;
57191;SDS011;43052;52.588;13.396;2023-04-25T11:36:22;5.15;;;2.00;;
57191;SDS011;43052;52.588;13.396;2023-04-25T11:38:49;8.63;;;2.50;;
57191;SDS011;43052;52.588;13.396;2023-04-25T11:41:16;5.22;;;2.28;;
57191;SDS011;43052;52.588;13.396;2023-04-25T11:43:42;6.30;;;2.22;;
57191;SDS011;43052;52.588;13.396;2023-04-25T11:46:08;6.15;;;2.20;;
57191;SDS011;43052;52.588;13.396;2023-04-25T11:48:37;8.43;;;2.45;;
57191;SDS011;43052;52.588;13.396;2023-04-25T11:51:03;7.00;;;2.10;;
57191;SDS011;43052;52.588;13.396;2023-04-25T11:53:29;5.80;;;2.65;;
57191;SDS011;43052;52.588;13.396;2023-04-25T11:55:54;6.85;;;2.10;;
57191;SDS011;43052;52.588;13.396;2023-04-25T11:58:20;5.85;;;2.30;;
57191;SDS011;43052;52.588;13.396;2023-04-25T12:00:45;6.57;;;2.20;;
57191;SDS011;43052;52.588;13.396;2023-04-25T12:03:10;7.22;;;2.65;;
57191;SDS011;43052;52.588;13.396;2023-04-25T12:05:36;7.53;;;2.30;;
57191;SDS011;43052;52.588;13.396;2023-04-25T12:08:15;7.50;;;2.45;;
57191;SDS011;43052;52.588;13.396;2023-04-25T12:10:41;5.65;;;2.55;;
57191;SDS011;43052;52.588;13.396;2023-04-25T12:13:24;7.03;;;3.33;;
57191;SDS011;43052;52.588;13.396;2023-04-25T12:15:51;8.48;;;2.17;;
57191;SDS011;43052;52.588;13.396;2023-04-25T12:18:19;6.00;;;2.58;;
57191;SDS011;43052;52.588;13.396;2023-04-25T12:20:46;5.25;;;2.40;;
57191;SDS011;43052;52.588;13.396;2023-04-25T12:23:11;7.25;;;2.17;;
57191;SDS011;43052;52.588;13.396;2023-04-25T12:25:38;5.00;;;2.38;;
57191;SDS011;43052;52.588;13.396;2023-04-25T12:30:54;4.07;;;2.25;;
57191;SDS011;43052;52.588;13.396;2023-04-25T12:33:22;7.65;;;2.50;;
57191;SDS011;43052;52.588;13.396;2023-04-25T12:35:48;4.93;;;2.20;;
57191;SDS011;43052;52.588;13.396;2023-04-25T12:38:20;7.47;;;2.67;;
57191;SDS011;43052;52.588;13.396;2023-04-25T12:40:49;6.80;;;2.13;;
57191;SDS011;43052;52.588;13.396;2023-04-25T12:43:14;9.27;;;3.08;;
57191;SDS011;43052;52.588;13.396;2023-04-25T12:45:40;7.10;;;2.67;;
57191;SDS011;43052;52.588;13.396;2023-04-25T12:48:05;5.55;;;2.40;;
57191;SDS011;43052;52.588;13.396;2023-04-25T12:50:30;6.50;;;2.17;;
57191;SDS011;43052;52.588;13.396;2023-04-25T12:52:56;8.25;;;2.55;;
57191;SDS011;43052;52.588;13.396;2023-04-25T12:55:22;6.88;;;2.53;;
57191;SDS011;43052;52.588;13.396;2023-04-25T12:57:47;6.85;;;2.90;;
57191;SDS011;43052;52.588;13.396;2023-04-25T13:00:13;7.60;;;2.47;;
57191;SDS011;43052;52.588;13.396;2023-04-25T13:02:39;7.18;;;2.35;;
57191;SDS011;43052;52.588;13.396;2023-04-25T13:05:05;4.18;;;2.00;;
57191;SDS011;43052;52.588;13.396;2023-04-25T13:07:31;5.13;;;2.20;;
57191;SDS011;43052;52.588;13.396;2023-04-25T13:09:56;6.45;;;2.17;;
57191;SDS011;43052;52.588;13.396;2023-04-25T13:12:21;6.50;;;2.08;;
57191;SDS011;43052;52.588;13.396;2023-04-25T13:14:46;4.70;;;2.03;;
57191;SDS011;43052;52.588;13.396;2023-04-25T13:17:12;7.05;;;2.03;;
57191;SDS011;43052;52.588;13.396;2023-04-25T13:19:37;4.22;;;1.85;;
57191;SDS011;43052;52.588;13.396;2023-04-25T13:22:03;6.72;;;2.15;;
57191;SDS011;43052;52.588;13.396;2023-04-25T13:24:29;7.43;;;2.20;;
57191;SDS011;43052;52.588;13.396;2023-04-25T13:26:54;3.53;;;1.95;;
57191;SDS011;43052;52.588;13.396;2023-04-25T13:29:20;5.65;;;2.08;;
57191;SDS011;43052;52.588;13.396;2023-04-25T13:31:45;5.15;;;2.38;;
57191;SDS011;43052;52.588;13.396;2023-04-25T13:34:10;8.35;;;2.47;;
57191;SDS011;43052;52.588;13.396;2023-04-25T13:36:37;7.25;;;2.33;;
57191;SDS011;43052;52.588;13.396;2023-04-25T13:39:02;7.38;;;2.40;;
57191;SDS011;43052;52.588;13.396;2023-04-25T13:41:29;6.00;;;2.13;;
57191;SDS011;43052;52.588;13.396;2023-04-25T13:43:54;5.05;;;1.90;;
57191;SDS011;43052;52.588;13.396;2023-04-25T13:46:20;8.98;;;2.60;;
57191;SDS011;43052;52.588;13.396;2023-04-25T13:48:45;7.38;;;2.22;;
57191;SDS011;43052;52.588;13.396;2023-04-25T13:51:13;8.25;;;2.67;;
57191;SDS011;43052;52.588;13.396;2023-04-25T13:53:39;9.88;;;3.38;;
57191;SDS011;43052;52.588;13.396;2023-04-25T13:56:04;7.82;;;2.35;;
57191;SDS011;43052;52.588;13.396;2023-04-25T13:58:32;6.25;;;2.15;;
57191;SDS011;43052;52.588;13.396;2023-04-25T14:00:58;5.18;;;1.70;;
57191;SDS011;43052;52.588;13.396;2023-04-25T14:03:23;8.13;;;2.15;;
57191;SDS011;43052;52.588;13.396;2023-04-25T14:05:48;3.88;;;1.95;;
57191;SDS011;43052;52.588;13.396;2023-04-25T14:08:13;6.07;;;2.15;;
57191;SDS011;43052;52.588;13.396;2023-04-25T14:10:38;8.13;;;4.70;;
57191;SDS011;43052;52.588;13.396;2023-04-25T14:13:04;6.63;;;2.05;;
57191;SDS011;43052;52.588;13.396;2023-04-25T14:15:31;4.40;;;2.15;;
57191;SDS011;43052;52.588;13.396;2023-04-25T14:17:57;4.57;;;1.75;;
57191;SDS011;43052;52.588;13.396;2023-04-25T14:20:22;6.30;;;1.80;;
57191;SDS011;43052;52.588;13.396;2023-04-25T14:22:49;3.33;;;1.90;;
57191;SDS011;43052;52.588;13.396;2023-04-25T14:25:15;6.35;;;2.00;;
57191;SDS011;43052;52.588;13.396;2023-04-25T14:27:40;6.32;;;2.50;;
57191;SDS011;43052;52.588;13.396;2023-04-25T14:30:05;7.68;;;2.35;;
57191;SDS011;43052;52.588;13.396;2023-04-25T14:32:31;7.57;;;2.30;;
57191;SDS011;43052;52.588;13.396;2023-04-25T14:34:57;4.65;;;2.00;;
57191;SDS011;43052;52.588;13.396;2023-04-25T14:37:22;4.95;;;2.13;;
57191;SDS011;43052;52.588;13.396;2023-04-25T14:39:47;4.57;;;2.10;;
57191;SDS011;43052;52.588;13.396;2023-04-25T14:42:13;5.63;;;1.92;;